F/V Adeline Stephen — FGUF — position and weather

sailwx.info

Track history (hours):
 
Tides and Currents Weather Stations Pressure Air Temp Water Temp Dewpoint Dewpoint Depression Visibility Wind Speed Wind Dir Waves Ship Positions

F/V Adeline Stephen

Last reported at 2018-Apr-23 04:02 UTC. Time now 2018-Apr-23 15:30 UTC.
Position N 47°12' W 003°26'.

Length 18 m.

Type: Fishing. MMSI: 228929000.

Date/timePositionNaut miles runAvg speedWind from/ knotsBaromVisibWave heightAir tempDewpointWater temp
2018-Apr-23 04:02N 47°12' W 003°26'1 8.8
2018-Apr-23 03:56N 47°13' W 003°26'4 8.8
2018-Apr-23 03:30N 47°17' W 003°25'4 9.0
2018-Apr-23 03:00N 47°21' W 003°25'5 9.1
2018-Apr-23 02:30N 47°26' W 003°24'5 9.2
2018-Apr-23 02:00N 47°30' W 003°24'5 9.0
2018-Apr-23 01:30N 47°35' W 003°23'5 9.2
2018-Apr-23 01:00N 47°39' W 003°22'4 8.7
2018-Apr-23 00:30N 47°44' W 003°22'0 0.0
2018-Apr-23 00:00N 47°44' W 003°22'0 0.0
2018-Apr-22 23:30N 47°44' W 003°22'3 6.2
2018-Apr-22 23:00N 47°41' W 003°22'4 8.6
2018-Apr-22 22:30N 47°36' W 003°23'5 9.0
2018-Apr-22 22:00N 47°32' W 003°24'5 9.3
2018-Apr-22 21:30N 47°28' W 003°26'4 9.0
2018-Apr-22 21:00N 47°23' W 003°28'5 8.9
2018-Apr-22 20:25N 47°18' W 003°30'4 8.7
2018-Apr-22 19:58N 47°14' W 003°31'2 3.2
2018-Apr-22 19:21N 47°12' W 003°31'1 3.3
2018-Apr-22 18:57N 47°11' W 003°30'2 3.7
2018-Apr-22 18:30N 47°10' W 003°29'2 3.8
2018-Apr-22 18:00N 47°08' W 003°29'2 3.8
2018-Apr-22 17:30N 47°06' W 003°29'2 3.7
2018-Apr-22 17:00N 47°04' W 003°28'1 2.5
2018-Apr-22 16:29N 47°03' W 003°28'2 3.5
2018-Apr-22 15:56N 47°01' W 003°30'1 2.8
2018-Apr-22 15:25N 47°00' W 003°29'1 3.0
2018-Apr-22 15:00N 47°00' W 003°28'2 3.2
2018-Apr-22 14:30N 47°01' W 003°29'1 2.6
2018-Apr-22 13:56N 47°01' W 003°31'1 2.8
2018-Apr-22 13:26N 46°60' W 003°32'1 3.4
2018-Apr-22 13:00N 46°60' W 003°34'4 1.4
2018-Apr-22 09:57N 47°00' W 003°28'2 3.4
2018-Apr-22 09:30N 47°01' W 003°29'2 3.2
2018-Apr-22 09:00N 47°01' W 003°31'3 2.3
2018-Apr-22 07:55N 47°01' W 003°28'1 3.3
2018-Apr-22 07:29N 47°01' W 003°30'2 3.8
2018-Apr-22 07:00N 47°03' W 003°32'2 3.0
2018-Apr-22 06:21N 47°01' W 003°31'3 2.6
2018-Apr-22 05:18N 47°01' W 003°27'1 4.0
2018-Apr-22 04:58N 47°01' W 003°29'6 2.9
2018-Apr-22 02:57N 46°59' W 003°37'4 2.1
2018-Apr-22 00:47N 46°59' W 003°31'2 3.4
2018-Apr-22 00:12N 46°60' W 003°33'2 1.0
2018-Apr-21 21:43N 46°59' W 003°30'2 0.4
2018-Apr-21 17:46N 46°57' W 003°29'1 3.8
2018-Apr-21 17:24N 46°59' W 003°30'2 2.9
2018-Apr-21 16:48N 46°60' W 003°28'1 3.7
2018-Apr-21 16:30N 47°01' W 003°28'2 3.7
2018-Apr-21 16:00N 47°02' W 003°30'1 1.8
2018-Apr-21 15:22N 47°02' W 003°32'1 3.1
2018-Apr-21 15:00N 47°01' W 003°31'1 2.8
2018-Apr-21 14:30N 47°02' W 003°32'2 3.3
2018-Apr-21 14:00N 47°02' W 003°34'5 2.6
2018-Apr-21 12:17N 46°60' W 003°28'1 2.4
2018-Apr-21 12:00N 47°00' W 003°29'2 3.6
2018-Apr-21 11:30N 47°01' W 003°31'3 1.8
2018-Apr-21 10:04N 46°60' W 003°28'0 3.7
2018-Apr-21 09:58N 46°60' W 003°29'2 1.5
2018-Apr-21 08:51N 47°01' W 003°27'1 2.4
2018-Apr-21 08:30N 47°01' W 003°28'1 2.9
2018-Apr-21 08:00N 47°01' W 003°30'2 2.5
2018-Apr-21 07:14N 47°01' W 003°27'1 3.6
2018-Apr-21 07:00N 47°01' W 003°28'2 3.4
2018-Apr-21 06:24N 47°03' W 003°28'2 3.8
2018-Apr-21 05:59N 47°05' W 003°27'2 4.1
2018-Apr-21 05:30N 47°07' W 003°27'2 4.6
2018-Apr-21 05:00N 47°09' W 003°26'4 8.7
2018-Apr-21 04:30N 47°13' W 003°26'4 8.6
2018-Apr-21 04:00N 47°18' W 003°25'4 8.7
2018-Apr-21 03:30N 47°22' W 003°25'4 8.4
2018-Apr-21 03:00N 47°26' W 003°24'4 8.2
2018-Apr-21 02:30N 47°30' W 003°24'4 8.9
2018-Apr-21 02:00N 47°35' W 003°23'4 8.9
2018-Apr-21 01:30N 47°39' W 003°23'5 9.2
2018-Apr-21 01:00N 47°44' W 003°22'0 0.3
2018-Apr-21 00:30N 47°44' W 003°22'0 0.0
2018-Apr-21 00:00N 47°44' W 003°22'0 0.2
2018-Apr-20 23:30N 47°44' W 003°22'2 3.6
2018-Apr-20 23:00N 47°42' W 003°22'4 8.3
2018-Apr-20 22:30N 47°40' W 003°28'4 8.4
2018-Apr-20 21:59N 47°38' W 003°34'4 8.8
2018-Apr-20 21:30N 47°34' W 003°36'5 9.1
2018-Apr-20 21:00N 47°30' W 003°40'4 8.6
2018-Apr-20 20:30N 47°26' W 003°43'4 7.6
2018-Apr-20 20:00N 47°23' W 003°45'5 2.9
2018-Apr-20 18:11N 47°18' W 003°42'1 3.7
2018-Apr-20 17:57N 47°17' W 003°43'2 3.6
2018-Apr-20 17:24N 47°15' W 003°43'2 3.8
2018-Apr-20 16:55N 47°14' W 003°45'1 1.6
2018-Apr-20 16:10N 47°15' W 003°43'1 4.0
2018-Apr-20 16:00N 47°14' W 003°44'2 3.6
2018-Apr-20 15:30N 47°13' W 003°46'1 2.7
2018-Apr-20 15:01N 47°13' W 003°48'2 3.0
2018-Apr-20 14:26N 47°14' W 003°46'1 3.3
2018-Apr-20 14:00N 47°13' W 003°46'2 3.6
2018-Apr-20 13:30N 47°13' W 003°49'2 3.5
2018-Apr-20 13:00N 47°13' W 003°52'4 3.4
2018-Apr-20 11:45N 47°14' W 003°46'1 2.6
2018-Apr-20 11:30N 47°14' W 003°46'1 2.6
2018-Apr-20 10:58N 47°14' W 003°48'2 1.2
2018-Apr-20 09:17N 47°14' W 003°45'1 3.4
2018-Apr-20 09:00N 47°15' W 003°46'2 3.4
2018-Apr-20 08:30N 47°15' W 003°48'1 2.6
2018-Apr-20 08:00N 47°14' W 003°49'2 3.4
2018-Apr-20 07:30N 47°12' W 003°48'1 2.6
2018-Apr-20 07:00N 47°11' W 003°47'2 3.2
2018-Apr-20 06:30N 47°12' W 003°49'5 1.8
2018-Apr-20 03:57N 47°08' W 003°44'4 3.9
2018-Apr-20 02:58N 47°05' W 003°46'27 3.2
2018-Apr-19 18:33N 46°47' W 003°16'0 4.0
2018-Apr-19 18:30N 46°47' W 003°16'2 3.7
2018-Apr-19 18:00N 46°47' W 003°19'2 0.2
2018-Apr-19 08:40N 46°48' W 003°22'5 2.9
2018-Apr-19 06:49N 46°53' W 003°23'2 3.3
2018-Apr-19 06:17N 46°52' W 003°24'5 3.4
2018-Apr-19 04:42N 46°46' W 003°24'0 2.0
2018-Apr-19 04:31N 46°46' W 003°24'2 2.8
2018-Apr-19 03:55N 46°45' W 003°24'3 3.2
2018-Apr-19 02:50N 46°45' W 003°19'1 3.5
2018-Apr-19 02:29N 46°46' W 003°19'2 3.7
2018-Apr-19 01:59N 46°46' W 003°22'2 4.0
2018-Apr-19 01:30N 46°46' W 003°25'2 3.9
2018-Apr-19 01:01N 46°45' W 003°26'8 0.7
2018-Apr-18 13:12N 46°46' W 003°38'1 3.0
2018-Apr-18 13:00N 46°46' W 003°38'1 3.0
2018-Apr-18 12:30N 46°48' W 003°39'2 3.0
2018-Apr-18 12:00N 46°49' W 003°39'2 3.4
2018-Apr-18 11:31N 46°51' W 003°40'1 2.1
2018-Apr-18 10:57N 46°52' W 003°39'1 2.7
2018-Apr-18 10:31N 46°53' W 003°39'2 3.2
2018-Apr-18 09:59N 46°55' W 003°39'2 3.3
2018-Apr-18 09:17N 46°57' W 003°38'1 3.4
2018-Apr-18 09:00N 46°58' W 003°38'2 3.4
2018-Apr-18 08:31N 46°60' W 003°37'2 3.2
2018-Apr-18 08:01N 47°01' W 003°37'2 3.5
2018-Apr-18 07:27N 47°03' W 003°37'9 7.8
2018-Apr-18 06:15N 47°12' W 003°32'2 8.8
2018-Apr-18 06:00N 47°14' W 003°31'4 8.6
2018-Apr-18 05:31N 47°18' W 003°30'4 8.9
2018-Apr-18 05:01N 47°23' W 003°28'4 8.8
2018-Apr-18 04:31N 47°27' W 003°27'4 8.6
2018-Apr-18 04:00N 47°31' W 003°25'4 8.4
2018-Apr-18 03:30N 47°35' W 003°23'4 8.5
2018-Apr-18 03:01N 47°39' W 003°22'  
2018-Apr-14 00:59N 47°44' W 003°22'0 0.0
2018-Apr-14 00:30N 47°44' W 003°22'0 0.0
2018-Apr-14 00:00N 47°44' W 003°22'0 0.2
2018-Apr-13 23:30N 47°44' W 003°22'2 4.6
2018-Apr-13 23:00N 47°41' W 003°22'5 9.0
2018-Apr-13 22:30N 47°37' W 003°23'5 9.0
2018-Apr-13 22:00N 47°32' W 003°23'5 9.0
2018-Apr-13 21:30N 47°28' W 003°23'4 8.8
2018-Apr-13 21:00N 47°23' W 003°23'5 9.0
2018-Apr-13 20:30N 47°19' W 003°22'7 9.0
2018-Apr-13 19:42N 47°12' W 003°22'2 8.7
2018-Apr-13 19:30N 47°10' W 003°22'17 2.6
2018-Apr-13 12:48N 46°53' W 003°21'10 1.6
2018-Apr-13 06:52N 46°60' W 003°31'  
Track history (hours):
 
Tides and Currents Weather Stations Pressure Air Temp Water Temp Dewpoint Dewpoint Depression Visibility Wind Speed Wind Dir Waves Ship Positions

F/V Adeline Stephen

Last reported at 2018-Apr-23 04:02 UTC. Time now 2018-Apr-23 15:30 UTC.
Position N 47°12' W 003°26'.

Length 18 m.

Type: Fishing. MMSI: 228929000.

Date/timePositionNaut miles runAvg speedWind from/ knotsBaromVisibWave heightAir tempDewpointWater temp
2018-Apr-23 04:02N 47°12' W 003°26'1 8.8
2018-Apr-23 03:56N 47°13' W 003°26'4 8.8
2018-Apr-23 03:30N 47°17' W 003°25'4 9.0
2018-Apr-23 03:00N 47°21' W 003°25'5 9.1
2018-Apr-23 02:30N 47°26' W 003°24'5 9.2
2018-Apr-23 02:00N 47°30' W 003°24'5 9.0
2018-Apr-23 01:30N 47°35' W 003°23'5 9.2
2018-Apr-23 01:00N 47°39' W 003°22'4 8.7
2018-Apr-23 00:30N 47°44' W 003°22'0 0.0
2018-Apr-23 00:00N 47°44' W 003°22'0 0.0
2018-Apr-22 23:30N 47°44' W 003°22'3 6.2
2018-Apr-22 23:00N 47°41' W 003°22'4 8.6
2018-Apr-22 22:30N 47°36' W 003°23'5 9.0
2018-Apr-22 22:00N 47°32' W 003°24'5 9.3
2018-Apr-22 21:30N 47°28' W 003°26'4 9.0
2018-Apr-22 21:00N 47°23' W 003°28'5 8.9
2018-Apr-22 20:25N 47°18' W 003°30'4 8.7
2018-Apr-22 19:58N 47°14' W 003°31'2 3.2
2018-Apr-22 19:21N 47°12' W 003°31'1 3.3
2018-Apr-22 18:57N 47°11' W 003°30'2 3.7
2018-Apr-22 18:30N 47°10' W 003°29'2 3.8
2018-Apr-22 18:00N 47°08' W 003°29'2 3.8
2018-Apr-22 17:30N 47°06' W 003°29'2 3.7
2018-Apr-22 17:00N 47°04' W 003°28'1 2.5
2018-Apr-22 16:29N 47°03' W 003°28'2 3.5
2018-Apr-22 15:56N 47°01' W 003°30'1 2.8
2018-Apr-22 15:25N 47°00' W 003°29'1 3.0
2018-Apr-22 15:00N 47°00' W 003°28'2 3.2
2018-Apr-22 14:30N 47°01' W 003°29'1 2.6
2018-Apr-22 13:56N 47°01' W 003°31'1 2.8
2018-Apr-22 13:26N 46°60' W 003°32'1 3.4
2018-Apr-22 13:00N 46°60' W 003°34'4 1.4
2018-Apr-22 09:57N 47°00' W 003°28'2 3.4
2018-Apr-22 09:30N 47°01' W 003°29'2 3.2
2018-Apr-22 09:00N 47°01' W 003°31'3 2.3
2018-Apr-22 07:55N 47°01' W 003°28'1 3.3
2018-Apr-22 07:29N 47°01' W 003°30'2 3.8
2018-Apr-22 07:00N 47°03' W 003°32'2 3.0
2018-Apr-22 06:21N 47°01' W 003°31'3 2.6
2018-Apr-22 05:18N 47°01' W 003°27'1 4.0
2018-Apr-22 04:58N 47°01' W 003°29'6 2.9
2018-Apr-22 02:57N 46°59' W 003°37'4 2.1
2018-Apr-22 00:47N 46°59' W 003°31'2 3.4
2018-Apr-22 00:12N 46°60' W 003°33'2 1.0
2018-Apr-21 21:43N 46°59' W 003°30'2 0.4
2018-Apr-21 17:46N 46°57' W 003°29'1 3.8
2018-Apr-21 17:24N 46°59' W 003°30'2 2.9
2018-Apr-21 16:48N 46°60' W 003°28'1 3.7
2018-Apr-21 16:30N 47°01' W 003°28'2 3.7
2018-Apr-21 16:00N 47°02' W 003°30'1 1.8
2018-Apr-21 15:22N 47°02' W 003°32'1 3.1
2018-Apr-21 15:00N 47°01' W 003°31'1 2.8
2018-Apr-21 14:30N 47°02' W 003°32'2 3.3
2018-Apr-21 14:00N 47°02' W 003°34'5 2.6
2018-Apr-21 12:17N 46°60' W 003°28'1 2.4
2018-Apr-21 12:00N 47°00' W 003°29'2 3.6
2018-Apr-21 11:30N 47°01' W 003°31'3 1.8
2018-Apr-21 10:04N 46°60' W 003°28'0 3.7
2018-Apr-21 09:58N 46°60' W 003°29'2 1.5
2018-Apr-21 08:51N 47°01' W 003°27'1 2.4
2018-Apr-21 08:30N 47°01' W 003°28'1 2.9
2018-Apr-21 08:00N 47°01' W 003°30'2 2.5
2018-Apr-21 07:14N 47°01' W 003°27'1 3.6
2018-Apr-21 07:00N 47°01' W 003°28'2 3.4
2018-Apr-21 06:24N 47°03' W 003°28'2 3.8
2018-Apr-21 05:59N 47°05' W 003°27'2 4.1
2018-Apr-21 05:30N 47°07' W 003°27'2 4.6
2018-Apr-21 05:00N 47°09' W 003°26'4 8.7
2018-Apr-21 04:30N 47°13' W 003°26'4 8.6
2018-Apr-21 04:00N 47°18' W 003°25'4 8.7
2018-Apr-21 03:30N 47°22' W 003°25'4 8.4
2018-Apr-21 03:00N 47°26' W 003°24'4 8.2
2018-Apr-21 02:30N 47°30' W 003°24'4 8.9
2018-Apr-21 02:00N 47°35' W 003°23'4 8.9
2018-Apr-21 01:30N 47°39' W 003°23'5 9.2
2018-Apr-21 01:00N 47°44' W 003°22'0 0.3
2018-Apr-21 00:30N 47°44' W 003°22'0 0.0
2018-Apr-21 00:00N 47°44' W 003°22'0 0.2
2018-Apr-20 23:30N 47°44' W 003°22'2 3.6
2018-Apr-20 23:00N 47°42' W 003°22'4 8.3
2018-Apr-20 22:30N 47°40' W 003°28'4 8.4
2018-Apr-20 21:59N 47°38' W 003°34'4 8.8
2018-Apr-20 21:30N 47°34' W 003°36'5 9.1
2018-Apr-20 21:00N 47°30' W 003°40'4 8.6
2018-Apr-20 20:30N 47°26' W 003°43'4 7.6
2018-Apr-20 20:00N 47°23' W 003°45'5 2.9
2018-Apr-20 18:11N 47°18' W 003°42'1 3.7
2018-Apr-20 17:57N 47°17' W 003°43'2 3.6
2018-Apr-20 17:24N 47°15' W 003°43'2 3.8
2018-Apr-20 16:55N 47°14' W 003°45'1 1.6
2018-Apr-20 16:10N 47°15' W 003°43'1 4.0
2018-Apr-20 16:00N 47°14' W 003°44'2 3.6
2018-Apr-20 15:30N 47°13' W 003°46'1 2.7
2018-Apr-20 15:01N 47°13' W 003°48'2 3.0
2018-Apr-20 14:26N 47°14' W 003°46'1 3.3
2018-Apr-20 14:00N 47°13' W 003°46'2 3.6
2018-Apr-20 13:30N 47°13' W 003°49'2 3.5
2018-Apr-20 13:00N 47°13' W 003°52'4 3.4
2018-Apr-20 11:45N 47°14' W 003°46'1 2.6
2018-Apr-20 11:30N 47°14' W 003°46'1 2.6
2018-Apr-20 10:58N 47°14' W 003°48'2 1.2
2018-Apr-20 09:17N 47°14' W 003°45'1 3.4
2018-Apr-20 09:00N 47°15' W 003°46'2 3.4
2018-Apr-20 08:30N 47°15' W 003°48'1 2.6
2018-Apr-20 08:00N 47°14' W 003°49'2 3.4
2018-Apr-20 07:30N 47°12' W 003°48'1 2.6
2018-Apr-20 07:00N 47°11' W 003°47'2 3.2
2018-Apr-20 06:30N 47°12' W 003°49'5 1.8
2018-Apr-20 03:57N 47°08' W 003°44'4 3.9
2018-Apr-20 02:58N 47°05' W 003°46'27 3.2
2018-Apr-19 18:33N 46°47' W 003°16'0 4.0
2018-Apr-19 18:30N 46°47' W 003°16'2 3.7
2018-Apr-19 18:00N 46°47' W 003°19'2 0.2
2018-Apr-19 08:40N 46°48' W 003°22'5 2.9
2018-Apr-19 06:49N 46°53' W 003°23'2 3.3
2018-Apr-19 06:17N 46°52' W 003°24'5 3.4
2018-Apr-19 04:42N 46°46' W 003°24'0 2.0
2018-Apr-19 04:31N 46°46' W 003°24'2 2.8
2018-Apr-19 03:55N 46°45' W 003°24'3 3.2
2018-Apr-19 02:50N 46°45' W 003°19'1 3.5
2018-Apr-19 02:29N 46°46' W 003°19'2 3.7
2018-Apr-19 01:59N 46°46' W 003°22'2 4.0
2018-Apr-19 01:30N 46°46' W 003°25'2 3.9
2018-Apr-19 01:01N 46°45' W 003°26'8 0.7
2018-Apr-18 13:12N 46°46' W 003°38'1 3.0
2018-Apr-18 13:00N 46°46' W 003°38'1 3.0
2018-Apr-18 12:30N 46°48' W 003°39'2 3.0
2018-Apr-18 12:00N 46°49' W 003°39'2 3.4
2018-Apr-18 11:31N 46°51' W 003°40'1 2.1
2018-Apr-18 10:57N 46°52' W 003°39'1 2.7
2018-Apr-18 10:31N 46°53' W 003°39'2 3.2
2018-Apr-18 09:59N 46°55' W 003°39'2 3.3
2018-Apr-18 09:17N 46°57' W 003°38'1 3.4
2018-Apr-18 09:00N 46°58' W 003°38'2 3.4
2018-Apr-18 08:31N 46°60' W 003°37'2 3.2
2018-Apr-18 08:01N 47°01' W 003°37'2 3.5
2018-Apr-18 07:27N 47°03' W 003°37'9 7.8
2018-Apr-18 06:15N 47°12' W 003°32'2 8.8
2018-Apr-18 06:00N 47°14' W 003°31'4 8.6
2018-Apr-18 05:31N 47°18' W 003°30'4 8.9
2018-Apr-18 05:01N 47°23' W 003°28'4 8.8
2018-Apr-18 04:31N 47°27' W 003°27'4 8.6
2018-Apr-18 04:00N 47°31' W 003°25'4 8.4
2018-Apr-18 03:30N 47°35' W 003°23'4 8.5
2018-Apr-18 03:01N 47°39' W 003°22'  
2018-Apr-14 00:59N 47°44' W 003°22'0 0.0
2018-Apr-14 00:30N 47°44' W 003°22'0 0.0
2018-Apr-14 00:00N 47°44' W 003°22'0 0.2
2018-Apr-13 23:30N 47°44' W 003°22'2 4.6
2018-Apr-13 23:00N 47°41' W 003°22'5 9.0
2018-Apr-13 22:30N 47°37' W 003°23'5 9.0
2018-Apr-13 22:00N 47°32' W 003°23'5 9.0
2018-Apr-13 21:30N 47°28' W 003°23'4 8.8
2018-Apr-13 21:00N 47°23' W 003°23'5 9.0
2018-Apr-13 20:30N 47°19' W 003°22'7 9.0
2018-Apr-13 19:42N 47°12' W 003°22'2 8.7
2018-Apr-13 19:30N 47°10' W 003°22'17 2.6
2018-Apr-13 12:48N 46°53' W 003°21'10 1.6
2018-Apr-13 06:52N 46°60' W 003°31'  

Dump ship's entire track history